sensor_id;sensor_type;location;lat;lon;timestamp;P1;durP1;ratioP1;P2;durP2;ratioP2
21274;SDS011;36472;52.170;20.884;2022-11-12T00:02:56;18.23;;;12.15;;
21274;SDS011;36472;52.170;20.884;2022-11-12T00:05:44;17.63;;;11.73;;
21274;SDS011;36472;52.170;20.884;2022-11-12T00:08:35;19.58;;;12.75;;
21274;SDS011;36472;52.170;20.884;2022-11-12T00:11:22;20.95;;;12.25;;
21274;SDS011;36472;52.170;20.884;2022-11-12T00:14:10;17.33;;;12.15;;
21274;SDS011;36472;52.170;20.884;2022-11-12T00:16:58;16.75;;;10.80;;
21274;SDS011;36472;52.170;20.884;2022-11-12T00:19:45;18.83;;;12.70;;
21274;SDS011;36472;52.170;20.884;2022-11-12T00:22:33;19.90;;;13.10;;
21274;SDS011;36472;52.170;20.884;2022-11-12T00:25:21;18.58;;;12.25;;
21274;SDS011;36472;52.170;20.884;2022-11-12T00:28:09;16.80;;;11.77;;
21274;SDS011;36472;52.170;20.884;2022-11-12T00:30:57;17.58;;;12.00;;
21274;SDS011;36472;52.170;20.884;2022-11-12T00:33:46;15.80;;;11.82;;
21274;SDS011;36472;52.170;20.884;2022-11-12T00:36:33;18.65;;;12.32;;
21274;SDS011;36472;52.170;20.884;2022-11-12T00:39:20;15.48;;;11.70;;
21274;SDS011;36472;52.170;20.884;2022-11-12T00:42:08;19.83;;;12.23;;
21274;SDS011;36472;52.170;20.884;2022-11-12T00:44:55;18.50;;;12.45;;
21274;SDS011;36472;52.170;20.884;2022-11-12T00:47:42;19.55;;;11.43;;
21274;SDS011;36472;52.170;20.884;2022-11-12T00:50:31;18.70;;;12.98;;
21274;SDS011;36472;52.170;20.884;2022-11-12T00:53:18;18.80;;;12.45;;
21274;SDS011;36472;52.170;20.884;2022-11-12T00:56:06;16.60;;;11.98;;
21274;SDS011;36472;52.170;20.884;2022-11-12T00:58:55;18.50;;;11.65;;
21274;SDS011;36472;52.170;20.884;2022-11-12T01:01:44;17.08;;;10.75;;
21274;SDS011;36472;52.170;20.884;2022-11-12T01:04:31;17.38;;;11.35;;
21274;SDS011;36472;52.170;20.884;2022-11-12T01:07:21;16.80;;;10.68;;
21274;SDS011;36472;52.170;20.884;2022-11-12T01:10:08;13.90;;;10.40;;
21274;SDS011;36472;52.170;20.884;2022-11-12T01:12:57;18.70;;;11.75;;
21274;SDS011;36472;52.170;20.884;2022-11-12T01:15:44;18.98;;;11.98;;
21274;SDS011;36472;52.170;20.884;2022-11-12T01:18:32;14.65;;;10.20;;
21274;SDS011;36472;52.170;20.884;2022-11-12T01:21:19;15.30;;;10.48;;
21274;SDS011;36472;52.170;20.884;2022-11-12T01:24:09;17.83;;;12.02;;
21274;SDS011;36472;52.170;20.884;2022-11-12T01:26:57;15.18;;;11.85;;
21274;SDS011;36472;52.170;20.884;2022-11-12T01:29:44;18.85;;;11.73;;
21274;SDS011;36472;52.170;20.884;2022-11-12T01:32:35;16.17;;;10.95;;
21274;SDS011;36472;52.170;20.884;2022-11-12T01:35:22;15.55;;;10.38;;
21274;SDS011;36472;52.170;20.884;2022-11-12T01:38:10;14.55;;;10.15;;
21274;SDS011;36472;52.170;20.884;2022-11-12T01:40:58;16.65;;;11.15;;
21274;SDS011;36472;52.170;20.884;2022-11-12T01:43:46;15.73;;;11.05;;
21274;SDS011;36472;52.170;20.884;2022-11-12T01:46:34;13.75;;;10.10;;
21274;SDS011;36472;52.170;20.884;2022-11-12T01:49:34;15.20;;;10.65;;
21274;SDS011;36472;52.170;20.884;2022-11-12T01:52:40;14.48;;;10.35;;
21274;SDS011;36472;52.170;20.884;2022-11-12T01:55:34;14.65;;;10.35;;
21274;SDS011;36472;52.170;20.884;2022-11-12T01:58:25;13.32;;;10.32;;
21274;SDS011;36472;52.170;20.884;2022-11-12T02:01:17;13.02;;;10.35;;
21274;SDS011;36472;52.170;20.884;2022-11-12T02:04:05;16.08;;;10.30;;
21274;SDS011;36472;52.170;20.884;2022-11-12T02:06:53;13.00;;;10.30;;
21274;SDS011;36472;52.170;20.884;2022-11-12T02:09:44;17.65;;;11.68;;
21274;SDS011;36472;52.170;20.884;2022-11-12T02:12:31;15.70;;;10.32;;
21274;SDS011;36472;52.170;20.884;2022-11-12T02:15:38;14.38;;;9.80;;
21274;SDS011;36472;52.170;20.884;2022-11-12T02:18:27;14.05;;;10.05;;
21274;SDS011;36472;52.170;20.884;2022-11-12T02:21:18;14.45;;;10.23;;
21274;SDS011;36472;52.170;20.884;2022-11-12T02:27:21;13.65;;;10.60;;
21274;SDS011;36472;52.170;20.884;2022-11-12T02:30:10;16.25;;;11.27;;
21274;SDS011;36472;52.170;20.884;2022-11-12T02:32:58;16.05;;;11.13;;
21274;SDS011;36472;52.170;20.884;2022-11-12T02:35:46;14.27;;;10.93;;
21274;SDS011;36472;52.170;20.884;2022-11-12T02:38:34;16.58;;;11.68;;
21274;SDS011;36472;52.170;20.884;2022-11-12T02:41:22;15.32;;;11.02;;
21274;SDS011;36472;52.170;20.884;2022-11-12T02:44:09;16.85;;;11.05;;
21274;SDS011;36472;52.170;20.884;2022-11-12T02:46:57;19.15;;;11.43;;
21274;SDS011;36472;52.170;20.884;2022-11-12T02:49:44;18.60;;;11.52;;
21274;SDS011;36472;52.170;20.884;2022-11-12T02:52:31;15.00;;;11.55;;
21274;SDS011;36472;52.170;20.884;2022-11-12T02:55:20;14.27;;;10.05;;
21274;SDS011;36472;52.170;20.884;2022-11-12T02:58:08;15.25;;;10.75;;
21274;SDS011;36472;52.170;20.884;2022-11-12T03:00:55;18.25;;;10.68;;
21274;SDS011;36472;52.170;20.884;2022-11-12T03:03:43;17.42;;;11.80;;
21274;SDS011;36472;52.170;20.884;2022-11-12T03:06:30;16.20;;;10.90;;
21274;SDS011;36472;52.170;20.884;2022-11-12T03:09:18;15.98;;;11.00;;
21274;SDS011;36472;52.170;20.884;2022-11-12T03:12:06;13.98;;;10.25;;
21274;SDS011;36472;52.170;20.884;2022-11-12T03:14:54;16.42;;;10.55;;
21274;SDS011;36472;52.170;20.884;2022-11-12T03:17:41;18.45;;;10.90;;
21274;SDS011;36472;52.170;20.884;2022-11-12T03:20:28;17.45;;;10.52;;
21274;SDS011;36472;52.170;20.884;2022-11-12T03:23:15;15.07;;;10.02;;
21274;SDS011;36472;52.170;20.884;2022-11-12T03:26:03;14.43;;;10.00;;
21274;SDS011;36472;52.170;20.884;2022-11-12T03:28:52;14.18;;;10.30;;
21274;SDS011;36472;52.170;20.884;2022-11-12T03:31:40;19.38;;;10.95;;
21274;SDS011;36472;52.170;20.884;2022-11-12T03:34:27;15.88;;;10.23;;
21274;SDS011;36472;52.170;20.884;2022-11-12T03:37:15;13.80;;;10.32;;
21274;SDS011;36472;52.170;20.884;2022-11-12T03:40:02;14.48;;;9.82;;
21274;SDS011;36472;52.170;20.884;2022-11-12T03:42:51;18.02;;;10.60;;
21274;SDS011;36472;52.170;20.884;2022-11-12T03:45:41;17.20;;;10.82;;
21274;SDS011;36472;52.170;20.884;2022-11-12T03:48:28;13.25;;;9.43;;
21274;SDS011;36472;52.170;20.884;2022-11-12T03:51:15;16.25;;;11.10;;
21274;SDS011;36472;52.170;20.884;2022-11-12T03:54:03;15.80;;;9.95;;
21274;SDS011;36472;52.170;20.884;2022-11-12T03:56:51;17.67;;;11.63;;
21274;SDS011;36472;52.170;20.884;2022-11-12T03:59:38;15.80;;;10.82;;
21274;SDS011;36472;52.170;20.884;2022-11-12T04:02:26;15.32;;;10.38;;
21274;SDS011;36472;52.170;20.884;2022-11-12T04:05:14;16.67;;;10.85;;
21274;SDS011;36472;52.170;20.884;2022-11-12T04:08:20;17.83;;;11.68;;
21274;SDS011;36472;52.170;20.884;2022-11-12T04:11:22;16.20;;;10.45;;
21274;SDS011;36472;52.170;20.884;2022-11-12T04:14:10;17.25;;;11.43;;
21274;SDS011;36472;52.170;20.884;2022-11-12T04:16:56;18.02;;;12.07;;
21274;SDS011;36472;52.170;20.884;2022-11-12T04:20:02;21.17;;;12.63;;
21274;SDS011;36472;52.170;20.884;2022-11-12T04:23:08;17.13;;;10.85;;
21274;SDS011;36472;52.170;20.884;2022-11-12T04:25:55;14.15;;;10.65;;
21274;SDS011;36472;52.170;20.884;2022-11-12T04:29:05;16.35;;;11.93;;
21274;SDS011;36472;52.170;20.884;2022-11-12T04:32:11;19.88;;;11.98;;
21274;SDS011;36472;52.170;20.884;2022-11-12T04:34:58;20.90;;;13.35;;
21274;SDS011;36472;52.170;20.884;2022-11-12T04:37:48;21.10;;;14.63;;
21274;SDS011;36472;52.170;20.884;2022-11-12T04:40:35;21.05;;;13.52;;
21274;SDS011;36472;52.170;20.884;2022-11-12T04:43:39;22.55;;;14.18;;
21274;SDS011;36472;52.170;20.884;2022-11-12T04:46:45;24.20;;;15.18;;
21274;SDS011;36472;52.170;20.884;2022-11-12T04:49:32;23.08;;;15.40;;
21274;SDS011;36472;52.170;20.884;2022-11-12T04:52:19;21.98;;;15.07;;
21274;SDS011;36472;52.170;20.884;2022-11-12T04:55:08;26.63;;;16.23;;
21274;SDS011;36472;52.170;20.884;2022-11-12T04:57:56;24.15;;;16.05;;
21274;SDS011;36472;52.170;20.884;2022-11-12T05:00:45;23.58;;;15.88;;
21274;SDS011;36472;52.170;20.884;2022-11-12T05:03:33;25.40;;;16.92;;
21274;SDS011;36472;52.170;20.884;2022-11-12T05:06:20;20.35;;;14.43;;
21274;SDS011;36472;52.170;20.884;2022-11-12T05:09:26;27.67;;;16.15;;
21274;SDS011;36472;52.170;20.884;2022-11-12T05:12:15;25.23;;;14.75;;
21274;SDS011;36472;52.170;20.884;2022-11-12T05:15:03;23.00;;;15.60;;
21274;SDS011;36472;52.170;20.884;2022-11-12T05:17:51;21.23;;;14.63;;
21274;SDS011;36472;52.170;20.884;2022-11-12T05:20:39;25.92;;;15.70;;
21274;SDS011;36472;52.170;20.884;2022-11-12T05:23:26;22.25;;;14.45;;
21274;SDS011;36472;52.170;20.884;2022-11-12T05:26:13;22.42;;;14.93;;
21274;SDS011;36472;52.170;20.884;2022-11-12T05:29:02;22.00;;;15.07;;
21274;SDS011;36472;52.170;20.884;2022-11-12T05:31:53;21.20;;;15.45;;
21274;SDS011;36472;52.170;20.884;2022-11-12T05:34:41;22.75;;;15.20;;
21274;SDS011;36472;52.170;20.884;2022-11-12T05:37:28;23.65;;;16.50;;
21274;SDS011;36472;52.170;20.884;2022-11-12T05:45:07;22.10;;;14.05;;
21274;SDS011;36472;52.170;20.884;2022-11-12T05:47:55;22.83;;;14.65;;
21274;SDS011;36472;52.170;20.884;2022-11-12T05:50:42;21.33;;;15.10;;
21274;SDS011;36472;52.170;20.884;2022-11-12T05:53:50;23.88;;;16.42;;
21274;SDS011;36472;52.170;20.884;2022-11-12T05:56:37;26.10;;;17.05;;
21274;SDS011;36472;52.170;20.884;2022-11-12T05:59:25;26.02;;;17.65;;
21274;SDS011;36472;52.170;20.884;2022-11-12T06:02:13;24.48;;;16.30;;
21274;SDS011;36472;52.170;20.884;2022-11-12T06:05:01;31.33;;;18.92;;
21274;SDS011;36472;52.170;20.884;2022-11-12T06:07:48;26.90;;;18.27;;
21274;SDS011;36472;52.170;20.884;2022-11-12T06:10:35;23.35;;;15.32;;
21274;SDS011;36472;52.170;20.884;2022-11-12T06:13:23;28.00;;;18.48;;
21274;SDS011;36472;52.170;20.884;2022-11-12T06:16:11;23.60;;;16.52;;
21274;SDS011;36472;52.170;20.884;2022-11-12T06:19:00;23.05;;;16.50;;
21274;SDS011;36472;52.170;20.884;2022-11-12T06:21:47;25.15;;;18.23;;
21274;SDS011;36472;52.170;20.884;2022-11-12T06:24:35;24.83;;;17.05;;
21274;SDS011;36472;52.170;20.884;2022-11-12T06:27:22;28.35;;;19.27;;
21274;SDS011;36472;52.170;20.884;2022-11-12T06:30:10;25.15;;;19.17;;
21274;SDS011;36472;52.170;20.884;2022-11-12T06:32:57;24.08;;;17.80;;
21274;SDS011;36472;52.170;20.884;2022-11-12T06:35:46;28.27;;;17.90;;
21274;SDS011;36472;52.170;20.884;2022-11-12T06:38:41;23.58;;;18.00;;
21274;SDS011;36472;52.170;20.884;2022-11-12T06:41:30;25.23;;;17.00;;
21274;SDS011;36472;52.170;20.884;2022-11-12T06:44:16;23.30;;;16.10;;
21274;SDS011;36472;52.170;20.884;2022-11-12T06:47:07;24.58;;;18.05;;
21274;SDS011;36472;52.170;20.884;2022-11-12T06:54:48;28.90;;;18.98;;
21274;SDS011;36472;52.170;20.884;2022-11-12T06:57:35;31.83;;;21.02;;
21274;SDS011;36472;52.170;20.884;2022-11-12T07:00:23;35.22;;;24.33;;
21274;SDS011;36472;52.170;20.884;2022-11-12T07:03:11;35.80;;;22.83;;
21274;SDS011;36472;52.170;20.884;2022-11-12T07:06:05;32.97;;;23.23;;
21274;SDS011;36472;52.170;20.884;2022-11-12T07:08:55;38.25;;;25.27;;
21274;SDS011;36472;52.170;20.884;2022-11-12T07:11:43;41.38;;;26.63;;
21274;SDS011;36472;52.170;20.884;2022-11-12T07:14:30;44.70;;;25.20;;
21274;SDS011;36472;52.170;20.884;2022-11-12T07:17:18;39.80;;;25.30;;
21274;SDS011;36472;52.170;20.884;2022-11-12T07:20:05;37.58;;;24.88;;
21274;SDS011;36472;52.170;20.884;2022-11-12T07:22:58;44.30;;;27.40;;
21274;SDS011;36472;52.170;20.884;2022-11-12T07:25:53;35.47;;;23.70;;
21274;SDS011;36472;52.170;20.884;2022-11-12T07:28:44;42.35;;;27.45;;
21274;SDS011;36472;52.170;20.884;2022-11-12T07:31:32;34.25;;;23.20;;
21274;SDS011;36472;52.170;20.884;2022-11-12T07:34:20;38.15;;;25.25;;
21274;SDS011;36472;52.170;20.884;2022-11-12T07:37:07;35.85;;;24.30;;
21274;SDS011;36472;52.170;20.884;2022-11-12T07:39:54;34.15;;;23.02;;
21274;SDS011;36472;52.170;20.884;2022-11-12T07:42:42;34.25;;;24.10;;
21274;SDS011;36472;52.170;20.884;2022-11-12T07:45:30;33.53;;;22.83;;
21274;SDS011;36472;52.170;20.884;2022-11-12T07:48:18;34.15;;;22.25;;
21274;SDS011;36472;52.170;20.884;2022-11-12T07:51:06;31.30;;;21.98;;
21274;SDS011;36472;52.170;20.884;2022-11-12T07:53:58;32.72;;;21.35;;
21274;SDS011;36472;52.170;20.884;2022-11-12T07:56:46;31.55;;;20.35;;
21274;SDS011;36472;52.170;20.884;2022-11-12T07:59:33;30.52;;;20.25;;
21274;SDS011;36472;52.170;20.884;2022-11-12T08:02:29;33.70;;;21.40;;
21274;SDS011;36472;52.170;20.884;2022-11-12T08:05:16;32.35;;;21.75;;
21274;SDS011;36472;52.170;20.884;2022-11-12T08:08:05;30.40;;;21.52;;
21274;SDS011;36472;52.170;20.884;2022-11-12T08:10:53;34.90;;;21.55;;
21274;SDS011;36472;52.170;20.884;2022-11-12T08:13:42;33.85;;;22.65;;
21274;SDS011;36472;52.170;20.884;2022-11-12T08:16:29;35.60;;;22.02;;
21274;SDS011;36472;52.170;20.884;2022-11-12T08:24:09;32.42;;;22.60;;
21274;SDS011;36472;52.170;20.884;2022-11-12T08:26:56;29.35;;;21.10;;
21274;SDS011;36472;52.170;20.884;2022-11-12T08:29:44;32.47;;;24.15;;
21274;SDS011;36472;52.170;20.884;2022-11-12T08:32:31;32.55;;;23.15;;
21274;SDS011;36472;52.170;20.884;2022-11-12T08:35:18;31.77;;;23.15;;
21274;SDS011;36472;52.170;20.884;2022-11-12T08:38:05;31.10;;;20.17;;
21274;SDS011;36472;52.170;20.884;2022-11-12T08:40:59;35.67;;;26.33;;
21274;SDS011;36472;52.170;20.884;2022-11-12T08:43:47;36.17;;;24.10;;
21274;SDS011;36472;52.170;20.884;2022-11-12T08:46:34;36.83;;;25.65;;
21274;SDS011;36472;52.170;20.884;2022-11-12T08:49:21;33.15;;;23.75;;
21274;SDS011;36472;52.170;20.884;2022-11-12T08:52:09;41.10;;;26.08;;
21274;SDS011;36472;52.170;20.884;2022-11-12T08:54:56;39.50;;;27.63;;
21274;SDS011;36472;52.170;20.884;2022-11-12T08:57:45;38.92;;;26.52;;
21274;SDS011;36472;52.170;20.884;2022-11-12T09:00:34;36.78;;;25.17;;
21274;SDS011;36472;52.170;20.884;2022-11-12T09:03:24;40.88;;;28.70;;
21274;SDS011;36472;52.170;20.884;2022-11-12T09:11:03;35.60;;;24.67;;
21274;SDS011;36472;52.170;20.884;2022-11-12T09:13:52;40.10;;;25.65;;
21274;SDS011;36472;52.170;20.884;2022-11-12T09:16:40;38.38;;;26.50;;
21274;SDS011;36472;52.170;20.884;2022-11-12T09:19:27;44.85;;;28.15;;
21274;SDS011;36472;52.170;20.884;2022-11-12T09:22:14;43.97;;;26.67;;
21274;SDS011;36472;52.170;20.884;2022-11-12T09:25:02;40.65;;;25.38;;
21274;SDS011;36472;52.170;20.884;2022-11-12T09:27:50;42.17;;;27.92;;
21274;SDS011;36472;52.170;20.884;2022-11-12T09:30:40;41.35;;;28.13;;
21274;SDS011;36472;52.170;20.884;2022-11-12T09:33:31;39.50;;;26.90;;
21274;SDS011;36472;52.170;20.884;2022-11-12T09:36:19;39.80;;;25.23;;
21274;SDS011;36472;52.170;20.884;2022-11-12T09:39:07;43.85;;;28.77;;
21274;SDS011;36472;52.170;20.884;2022-11-12T09:41:54;39.83;;;26.60;;
21274;SDS011;36472;52.170;20.884;2022-11-12T09:44:48;41.67;;;28.38;;
21274;SDS011;36472;52.170;20.884;2022-11-12T09:47:47;43.35;;;28.77;;
21274;SDS011;36472;52.170;20.884;2022-11-12T09:50:45;43.92;;;28.10;;
21274;SDS011;36472;52.170;20.884;2022-11-12T09:53:45;43.53;;;28.73;;
21274;SDS011;36472;52.170;20.884;2022-11-12T09:56:40;40.78;;;26.17;;
21274;SDS011;36472;52.170;20.884;2022-11-12T09:59:27;41.08;;;25.80;;
21274;SDS011;36472;52.170;20.884;2022-11-12T10:02:20;41.60;;;27.75;;
21274;SDS011;36472;52.170;20.884;2022-11-12T10:09:48;39.38;;;24.92;;
21274;SDS011;36472;52.170;20.884;2022-11-12T10:12:52;39.40;;;26.48;;
21274;SDS011;36472;52.170;20.884;2022-11-12T10:16:03;38.03;;;26.33;;
21274;SDS011;36472;52.170;20.884;2022-11-12T10:22:56;38.33;;;25.73;;
21274;SDS011;36472;52.170;20.884;2022-11-12T10:26:00;42.40;;;26.15;;
21274;SDS011;36472;52.170;20.884;2022-11-12T10:29:00;40.20;;;27.52;;
21274;SDS011;36472;52.170;20.884;2022-11-12T10:31:59;39.53;;;27.25;;
21274;SDS011;36472;52.170;20.884;2022-11-12T10:34:48;39.67;;;27.33;;
21274;SDS011;36472;52.170;20.884;2022-11-12T10:37:36;39.47;;;29.00;;
21274;SDS011;36472;52.170;20.884;2022-11-12T10:45:26;38.78;;;25.55;;
21274;SDS011;36472;52.170;20.884;2022-11-12T10:48:20;40.42;;;28.42;;
21274;SDS011;36472;52.170;20.884;2022-11-12T10:51:18;37.78;;;27.33;;
21274;SDS011;36472;52.170;20.884;2022-11-12T10:54:19;38.60;;;27.20;;
21274;SDS011;36472;52.170;20.884;2022-11-12T10:57:18;37.85;;;27.00;;
21274;SDS011;36472;52.170;20.884;2022-11-12T11:04:37;34.63;;;25.65;;
21274;SDS011;36472;52.170;20.884;2022-11-12T11:07:24;38.97;;;28.13;;
21274;SDS011;36472;52.170;20.884;2022-11-12T11:10:21;37.03;;;27.85;;
21274;SDS011;36472;52.170;20.884;2022-11-12T11:13:18;39.72;;;29.10;;
21274;SDS011;36472;52.170;20.884;2022-11-12T11:16:09;40.35;;;28.77;;
21274;SDS011;36472;52.170;20.884;2022-11-12T11:19:02;35.38;;;27.13;;
21274;SDS011;36472;52.170;20.884;2022-11-12T11:21:59;34.42;;;26.17;;
21274;SDS011;36472;52.170;20.884;2022-11-12T11:25:12;36.03;;;26.27;;
21274;SDS011;36472;52.170;20.884;2022-11-12T11:28:10;35.85;;;27.25;;
21274;SDS011;36472;52.170;20.884;2022-11-12T11:31:11;38.47;;;28.02;;
21274;SDS011;36472;52.170;20.884;2022-11-12T11:34:14;33.45;;;26.92;;
21274;SDS011;36472;52.170;20.884;2022-11-12T11:37:21;36.10;;;27.48;;
21274;SDS011;36472;52.170;20.884;2022-11-12T11:40:14;37.95;;;27.45;;
21274;SDS011;36472;52.170;20.884;2022-11-12T11:43:19;30.80;;;24.52;;
21274;SDS011;36472;52.170;20.884;2022-11-12T11:46:37;29.98;;;24.77;;
21274;SDS011;36472;52.170;20.884;2022-11-12T12:04:29;32.78;;;24.00;;
21274;SDS011;36472;52.170;20.884;2022-11-12T12:07:33;31.88;;;25.35;;
21274;SDS011;36472;52.170;20.884;2022-11-12T12:10:36;29.08;;;21.83;;
21274;SDS011;36472;52.170;20.884;2022-11-12T12:14:00;32.15;;;25.60;;
21274;SDS011;36472;52.170;20.884;2022-11-12T12:17:03;29.15;;;23.00;;
21274;SDS011;36472;52.170;20.884;2022-11-12T12:20:18;30.38;;;22.63;;
21274;SDS011;36472;52.170;20.884;2022-11-12T12:23:18;34.53;;;24.02;;
21274;SDS011;36472;52.170;20.884;2022-11-12T12:26:17;31.80;;;21.40;;
21274;SDS011;36472;52.170;20.884;2022-11-12T12:33:36;25.13;;;18.23;;
21274;SDS011;36472;52.170;20.884;2022-11-12T12:36:35;22.95;;;18.70;;
21274;SDS011;36472;52.170;20.884;2022-11-12T12:39:28;23.80;;;17.92;;
21274;SDS011;36472;52.170;20.884;2022-11-12T12:42:33;25.05;;;17.40;;
21274;SDS011;36472;52.170;20.884;2022-11-12T12:45:36;26.05;;;17.95;;
21274;SDS011;36472;52.170;20.884;2022-11-12T12:53:02;24.40;;;17.55;;
21274;SDS011;36472;52.170;20.884;2022-11-12T12:56:01;21.95;;;16.35;;
21274;SDS011;36472;52.170;20.884;2022-11-12T12:58:51;24.63;;;16.20;;
21274;SDS011;36472;52.170;20.884;2022-11-12T13:01:39;25.05;;;16.73;;
21274;SDS011;36472;52.170;20.884;2022-11-12T13:07:39;26.10;;;18.95;;
21274;SDS011;36472;52.170;20.884;2022-11-12T13:13:38;24.88;;;17.85;;
21274;SDS011;36472;52.170;20.884;2022-11-12T13:19:45;31.27;;;20.13;;
21274;SDS011;36472;52.170;20.884;2022-11-12T13:26:47;26.52;;;19.15;;
21274;SDS011;36472;52.170;20.884;2022-11-12T13:29:39;30.17;;;20.35;;
21274;SDS011;36472;52.170;20.884;2022-11-12T13:32:34;28.73;;;19.88;;
21274;SDS011;36472;52.170;20.884;2022-11-12T13:35:27;27.70;;;20.55;;
21274;SDS011;36472;52.170;20.884;2022-11-12T13:38:18;29.30;;;19.88;;
21274;SDS011;36472;52.170;20.884;2022-11-12T13:41:06;27.33;;;20.08;;
21274;SDS011;36472;52.170;20.884;2022-11-12T13:44:05;42.15;;;29.45;;
21274;SDS011;36472;52.170;20.884;2022-11-12T13:47:02;29.33;;;20.83;;
21274;SDS011;36472;52.170;20.884;2022-11-12T13:49:50;29.00;;;18.40;;
21274;SDS011;36472;52.170;20.884;2022-11-12T13:52:37;25.85;;;18.48;;
21274;SDS011;36472;52.170;20.884;2022-11-12T13:55:26;25.60;;;19.90;;
21274;SDS011;36472;52.170;20.884;2022-11-12T13:58:17;26.92;;;18.90;;
21274;SDS011;36472;52.170;20.884;2022-11-12T14:05:39;21.73;;;16.77;;
21274;SDS011;36472;52.170;20.884;2022-11-12T14:08:42;25.75;;;17.95;;
21274;SDS011;36472;52.170;20.884;2022-11-12T14:11:54;26.83;;;18.27;;
21274;SDS011;36472;52.170;20.884;2022-11-12T14:15:13;26.70;;;19.50;;
21274;SDS011;36472;52.170;20.884;2022-11-12T14:18:19;22.38;;;16.83;;
21274;SDS011;36472;52.170;20.884;2022-11-12T14:21:16;26.95;;;20.08;;
21274;SDS011;36472;52.170;20.884;2022-11-12T14:24:04;30.80;;;21.80;;
21274;SDS011;36472;52.170;20.884;2022-11-12T14:26:57;31.40;;;21.25;;
21274;SDS011;36472;52.170;20.884;2022-11-12T14:29:45;32.78;;;22.55;;
21274;SDS011;36472;52.170;20.884;2022-11-12T14:32:36;29.95;;;20.75;;
21274;SDS011;36472;52.170;20.884;2022-11-12T14:35:27;28.05;;;21.45;;
21274;SDS011;36472;52.170;20.884;2022-11-12T14:38:22;29.42;;;21.05;;
21274;SDS011;36472;52.170;20.884;2022-11-12T14:41:17;27.58;;;18.52;;
21274;SDS011;36472;52.170;20.884;2022-11-12T14:44:09;30.50;;;20.67;;
21274;SDS011;36472;52.170;20.884;2022-11-12T14:47:04;27.30;;;20.15;;
21274;SDS011;36472;52.170;20.884;2022-11-12T14:49:54;28.40;;;19.60;;
21274;SDS011;36472;52.170;20.884;2022-11-12T14:52:43;29.35;;;19.67;;
21274;SDS011;36472;52.170;20.884;2022-11-12T15:00:37;32.50;;;22.25;;
21274;SDS011;36472;52.170;20.884;2022-11-12T15:03:30;36.85;;;25.88;;
21274;SDS011;36472;52.170;20.884;2022-11-12T15:06:19;61.40;;;37.22;;
21274;SDS011;36472;52.170;20.884;2022-11-12T15:09:15;36.60;;;26.65;;
21274;SDS011;36472;52.170;20.884;2022-11-12T15:16:36;39.65;;;27.65;;
21274;SDS011;36472;52.170;20.884;2022-11-12T15:19:29;32.95;;;23.17;;
21274;SDS011;36472;52.170;20.884;2022-11-12T15:30:21;36.88;;;24.60;;
21274;SDS011;36472;52.170;20.884;2022-11-12T15:33:17;39.30;;;25.50;;
21274;SDS011;36472;52.170;20.884;2022-11-12T15:36:13;36.40;;;25.52;;
21274;SDS011;36472;52.170;20.884;2022-11-12T15:39:04;34.05;;;24.67;;
21274;SDS011;36472;52.170;20.884;2022-11-12T15:42:00;35.28;;;24.00;;
21274;SDS011;36472;52.170;20.884;2022-11-12T15:44:55;35.58;;;25.23;;
21274;SDS011;36472;52.170;20.884;2022-11-12T15:47:44;38.53;;;26.08;;
21274;SDS011;36472;52.170;20.884;2022-11-12T15:50:34;36.65;;;23.17;;
21274;SDS011;36472;52.170;20.884;2022-11-12T15:53:23;41.63;;;28.02;;
21274;SDS011;36472;52.170;20.884;2022-11-12T15:56:11;28.60;;;19.88;;
21274;SDS011;36472;52.170;20.884;2022-11-12T15:59:05;32.67;;;21.35;;
21274;SDS011;36472;52.170;20.884;2022-11-12T16:01:59;43.22;;;28.73;;
21274;SDS011;36472;52.170;20.884;2022-11-12T16:04:46;46.78;;;28.85;;
21274;SDS011;36472;52.170;20.884;2022-11-12T16:07:35;49.42;;;34.17;;
21274;SDS011;36472;52.170;20.884;2022-11-12T16:10:22;71.25;;;44.75;;
21274;SDS011;36472;52.170;20.884;2022-11-12T16:13:12;46.53;;;29.75;;
21274;SDS011;36472;52.170;20.884;2022-11-12T16:20:38;35.05;;;24.73;;
21274;SDS011;36472;52.170;20.884;2022-11-12T16:23:26;29.23;;;20.88;;
21274;SDS011;36472;52.170;20.884;2022-11-12T16:26:14;39.65;;;26.58;;
21274;SDS011;36472;52.170;20.884;2022-11-12T16:29:10;40.38;;;28.02;;
21274;SDS011;36472;52.170;20.884;2022-11-12T16:31:59;39.70;;;26.70;;
21274;SDS011;36472;52.170;20.884;2022-11-12T16:34:46;29.10;;;20.40;;
21274;SDS011;36472;52.170;20.884;2022-11-12T16:37:34;30.33;;;20.38;;
21274;SDS011;36472;52.170;20.884;2022-11-12T16:40:25;29.85;;;20.48;;
21274;SDS011;36472;52.170;20.884;2022-11-12T16:43:15;36.38;;;25.35;;
21274;SDS011;36472;52.170;20.884;2022-11-12T16:50:54;38.20;;;27.75;;
21274;SDS011;36472;52.170;20.884;2022-11-12T16:53:45;39.45;;;25.70;;
21274;SDS011;36472;52.170;20.884;2022-11-12T16:56:35;33.30;;;22.33;;
21274;SDS011;36472;52.170;20.884;2022-11-12T16:59:22;34.15;;;22.98;;
21274;SDS011;36472;52.170;20.884;2022-11-12T17:02:11;29.17;;;21.23;;
21274;SDS011;36472;52.170;20.884;2022-11-12T17:05:01;31.10;;;20.73;;
21274;SDS011;36472;52.170;20.884;2022-11-12T17:07:53;30.60;;;21.98;;
21274;SDS011;36472;52.170;20.884;2022-11-12T17:10:42;29.95;;;20.67;;
21274;SDS011;36472;52.170;20.884;2022-11-12T17:13:32;31.50;;;21.58;;
21274;SDS011;36472;52.170;20.884;2022-11-12T17:16:19;28.98;;;21.48;;
21274;SDS011;36472;52.170;20.884;2022-11-12T17:19:08;29.42;;;20.65;;
21274;SDS011;36472;52.170;20.884;2022-11-12T17:26:26;24.17;;;18.00;;
21274;SDS011;36472;52.170;20.884;2022-11-12T17:29:15;22.17;;;17.90;;
21274;SDS011;36472;52.170;20.884;2022-11-12T17:36:33;30.75;;;20.27;;
21274;SDS011;36472;52.170;20.884;2022-11-12T17:39:26;26.40;;;17.52;;
21274;SDS011;36472;52.170;20.884;2022-11-12T17:42:13;29.60;;;19.70;;
21274;SDS011;36472;52.170;20.884;2022-11-12T17:45:02;27.33;;;19.73;;
21274;SDS011;36472;52.170;20.884;2022-11-12T17:47:51;28.98;;;20.17;;
21274;SDS011;36472;52.170;20.884;2022-11-12T17:50:38;33.63;;;22.10;;
21274;SDS011;36472;52.170;20.884;2022-11-12T17:53:25;28.40;;;20.77;;
21274;SDS011;36472;52.170;20.884;2022-11-12T17:56:17;30.98;;;20.95;;
21274;SDS011;36472;52.170;20.884;2022-11-12T17:59:08;34.88;;;22.77;;
21274;SDS011;36472;52.170;20.884;2022-11-12T18:01:57;30.98;;;23.17;;
21274;SDS011;36472;52.170;20.884;2022-11-12T18:04:44;31.40;;;22.63;;
21274;SDS011;36472;52.170;20.884;2022-11-12T18:07:31;29.75;;;21.27;;
21274;SDS011;36472;52.170;20.884;2022-11-12T18:10:18;30.00;;;21.88;;
21274;SDS011;36472;52.170;20.884;2022-11-12T18:13:06;32.85;;;21.73;;
21274;SDS011;36472;52.170;20.884;2022-11-12T18:15:53;33.97;;;22.90;;
21274;SDS011;36472;52.170;20.884;2022-11-12T18:18:42;31.30;;;22.42;;
21274;SDS011;36472;52.170;20.884;2022-11-12T18:21:30;31.48;;;22.88;;
21274;SDS011;36472;52.170;20.884;2022-11-12T18:24:17;34.75;;;23.75;;
21274;SDS011;36472;52.170;20.884;2022-11-12T18:27:04;36.35;;;23.55;;